sensor_id;sensor_type;location;lat;lon;timestamp;P1;durP1;ratioP1;P2;durP2;ratioP2
42196;SDS011;27866;48.146;17.098;2023-03-16T00:01:09;4.78;;;3.10;;
42196;SDS011;27866;48.146;17.098;2023-03-16T00:05:21;5.93;;;3.20;;
42196;SDS011;27866;48.146;17.098;2023-03-16T00:09:35;5.68;;;3.53;;
42196;SDS011;27866;48.146;17.098;2023-03-16T00:13:50;4.50;;;3.10;;
42196;SDS011;27866;48.146;17.098;2023-03-16T00:18:02;6.13;;;3.53;;
42196;SDS011;27866;48.146;17.098;2023-03-16T00:22:14;5.53;;;3.70;;
42196;SDS011;27866;48.146;17.098;2023-03-16T00:26:26;6.40;;;3.75;;
42196;SDS011;27866;48.146;17.098;2023-03-16T00:30:37;6.18;;;3.70;;
42196;SDS011;27866;48.146;17.098;2023-03-16T00:34:48;6.63;;;3.80;;
42196;SDS011;27866;48.146;17.098;2023-03-16T00:39:00;5.28;;;4.10;;
42196;SDS011;27866;48.146;17.098;2023-03-16T00:43:12;7.35;;;4.20;;
42196;SDS011;27866;48.146;17.098;2023-03-16T00:47:29;5.55;;;3.95;;
42196;SDS011;27866;48.146;17.098;2023-03-16T00:51:42;7.40;;;4.45;;
42196;SDS011;27866;48.146;17.098;2023-03-16T00:55:56;9.73;;;4.93;;
42196;SDS011;27866;48.146;17.098;2023-03-16T01:00:08;8.25;;;4.90;;
42196;SDS011;27866;48.146;17.098;2023-03-16T01:04:24;8.88;;;4.88;;
42196;SDS011;27866;48.146;17.098;2023-03-16T01:08:37;8.32;;;5.30;;
42196;SDS011;27866;48.146;17.098;2023-03-16T01:12:51;9.18;;;5.22;;
42196;SDS011;27866;48.146;17.098;2023-03-16T01:17:06;10.38;;;5.78;;
42196;SDS011;27866;48.146;17.098;2023-03-16T01:21:19;8.60;;;5.60;;
42196;SDS011;27866;48.146;17.098;2023-03-16T01:25:33;11.27;;;5.90;;
42196;SDS011;27866;48.146;17.098;2023-03-16T01:29:44;9.73;;;5.78;;
42196;SDS011;27866;48.146;17.098;2023-03-16T01:33:56;10.45;;;6.60;;
42196;SDS011;27866;48.146;17.098;2023-03-16T01:38:11;11.98;;;6.43;;
42196;SDS011;27866;48.146;17.098;2023-03-16T01:42:23;12.13;;;6.07;;
42196;SDS011;27866;48.146;17.098;2023-03-16T01:46:34;9.25;;;6.30;;
42196;SDS011;27866;48.146;17.098;2023-03-16T01:50:46;10.88;;;6.78;;
42196;SDS011;27866;48.146;17.098;2023-03-16T01:54:59;8.82;;;6.00;;
42196;SDS011;27866;48.146;17.098;2023-03-16T01:59:19;10.35;;;6.38;;
42196;SDS011;27866;48.146;17.098;2023-03-16T02:03:34;11.95;;;6.18;;
42196;SDS011;27866;48.146;17.098;2023-03-16T02:07:55;13.93;;;6.97;;
42196;SDS011;27866;48.146;17.098;2023-03-16T02:12:08;13.10;;;7.37;;
42196;SDS011;27866;48.146;17.098;2023-03-16T02:16:30;9.35;;;7.28;;
42196;SDS011;27866;48.146;17.098;2023-03-16T02:20:43;17.00;;;8.27;;
42196;SDS011;27866;48.146;17.098;2023-03-16T02:25:28;13.00;;;8.32;;
42196;SDS011;27866;48.146;17.098;2023-03-16T02:29:53;12.98;;;7.75;;
42196;SDS011;27866;48.146;17.098;2023-03-16T02:34:34;14.00;;;8.10;;
42196;SDS011;27866;48.146;17.098;2023-03-16T02:38:46;12.75;;;8.20;;
42196;SDS011;27866;48.146;17.098;2023-03-16T02:43:01;12.65;;;7.82;;
42196;SDS011;27866;48.146;17.098;2023-03-16T02:47:34;14.03;;;8.43;;
42196;SDS011;27866;48.146;17.098;2023-03-16T02:51:51;13.80;;;8.85;;
42196;SDS011;27866;48.146;17.098;2023-03-16T02:56:03;12.82;;;8.38;;
42196;SDS011;27866;48.146;17.098;2023-03-16T03:00:18;14.80;;;7.93;;
42196;SDS011;27866;48.146;17.098;2023-03-16T03:04:34;13.73;;;7.32;;
42196;SDS011;27866;48.146;17.098;2023-03-16T03:08:45;12.30;;;8.32;;
42196;SDS011;27866;48.146;17.098;2023-03-16T03:12:57;20.02;;;8.77;;
42196;SDS011;27866;48.146;17.098;2023-03-16T03:17:08;16.35;;;8.60;;
42196;SDS011;27866;48.146;17.098;2023-03-16T03:21:22;13.68;;;8.75;;
42196;SDS011;27866;48.146;17.098;2023-03-16T03:25:34;15.80;;;8.63;;
42196;SDS011;27866;48.146;17.098;2023-03-16T03:29:47;18.38;;;8.75;;
42196;SDS011;27866;48.146;17.098;2023-03-16T03:33:58;14.23;;;8.70;;
42196;SDS011;27866;48.146;17.098;2023-03-16T03:38:16;13.85;;;8.48;;
42196;SDS011;27866;48.146;17.098;2023-03-16T03:42:29;15.73;;;9.02;;
42196;SDS011;27866;48.146;17.098;2023-03-16T03:46:41;13.98;;;9.15;;
42196;SDS011;27866;48.146;17.098;2023-03-16T03:50:52;13.73;;;9.07;;
42196;SDS011;27866;48.146;17.098;2023-03-16T03:55:27;13.02;;;9.02;;
42196;SDS011;27866;48.146;17.098;2023-03-16T03:59:38;15.15;;;9.40;;
42196;SDS011;27866;48.146;17.098;2023-03-16T04:04:19;16.85;;;9.40;;
42196;SDS011;27866;48.146;17.098;2023-03-16T04:08:30;13.57;;;9.15;;
42196;SDS011;27866;48.146;17.098;2023-03-16T04:12:42;18.27;;;9.77;;
42196;SDS011;27866;48.146;17.098;2023-03-16T04:16:56;18.88;;;9.18;;
42196;SDS011;27866;48.146;17.098;2023-03-16T04:21:11;19.75;;;10.40;;
42196;SDS011;27866;48.146;17.098;2023-03-16T04:25:28;15.27;;;9.15;;
42196;SDS011;27866;48.146;17.098;2023-03-16T04:29:41;15.45;;;10.20;;
42196;SDS011;27866;48.146;17.098;2023-03-16T04:33:53;15.50;;;9.60;;
42196;SDS011;27866;48.146;17.098;2023-03-16T04:38:05;14.75;;;10.02;;
42196;SDS011;27866;48.146;17.098;2023-03-16T04:42:25;17.70;;;10.18;;
42196;SDS011;27866;48.146;17.098;2023-03-16T04:46:36;16.10;;;9.18;;
42196;SDS011;27866;48.146;17.098;2023-03-16T04:50:51;16.63;;;9.85;;
42196;SDS011;27866;48.146;17.098;2023-03-16T04:55:03;17.35;;;9.57;;
42196;SDS011;27866;48.146;17.098;2023-03-16T04:59:16;18.92;;;9.95;;
42196;SDS011;27866;48.146;17.098;2023-03-16T05:03:33;20.05;;;10.50;;
42196;SDS011;27866;48.146;17.098;2023-03-16T05:07:47;18.63;;;11.20;;
42196;SDS011;27866;48.146;17.098;2023-03-16T05:11:59;18.60;;;9.98;;
42196;SDS011;27866;48.146;17.098;2023-03-16T05:16:11;19.30;;;10.68;;
42196;SDS011;27866;48.146;17.098;2023-03-16T05:20:24;15.47;;;10.13;;
42196;SDS011;27866;48.146;17.098;2023-03-16T05:28:50;16.25;;;10.25;;
42196;SDS011;27866;48.146;17.098;2023-03-16T05:33:04;20.40;;;10.40;;
42196;SDS011;27866;48.146;17.098;2023-03-16T05:37:16;18.20;;;10.75;;
42196;SDS011;27866;48.146;17.098;2023-03-16T05:41:28;17.83;;;10.93;;
42196;SDS011;27866;48.146;17.098;2023-03-16T05:45:47;17.63;;;10.57;;
42196;SDS011;27866;48.146;17.098;2023-03-16T05:50:02;18.90;;;11.52;;
42196;SDS011;27866;48.146;17.098;2023-03-16T05:54:20;16.02;;;10.32;;
42196;SDS011;27866;48.146;17.098;2023-03-16T05:58:32;16.15;;;9.82;;
42196;SDS011;27866;48.146;17.098;2023-03-16T06:02:45;18.52;;;9.82;;
42196;SDS011;27866;48.146;17.098;2023-03-16T06:06:58;14.68;;;8.77;;
42196;SDS011;27866;48.146;17.098;2023-03-16T06:11:12;14.53;;;8.40;;
42196;SDS011;27866;48.146;17.098;2023-03-16T06:15:25;16.42;;;8.60;;
42196;SDS011;27866;48.146;17.098;2023-03-16T06:19:41;12.88;;;8.43;;
42196;SDS011;27866;48.146;17.098;2023-03-16T06:23:53;13.98;;;8.70;;
42196;SDS011;27866;48.146;17.098;2023-03-16T06:28:06;15.65;;;8.57;;
42196;SDS011;27866;48.146;17.098;2023-03-16T06:32:18;16.55;;;9.25;;
42196;SDS011;27866;48.146;17.098;2023-03-16T06:36:29;14.02;;;9.02;;
42196;SDS011;27866;48.146;17.098;2023-03-16T06:44:55;14.23;;;8.27;;
42196;SDS011;27866;48.146;17.098;2023-03-16T06:49:07;12.63;;;8.70;;
42196;SDS011;27866;48.146;17.098;2023-03-16T06:53:18;14.98;;;10.00;;
42196;SDS011;27866;48.146;17.098;2023-03-16T06:57:31;13.82;;;9.02;;
42196;SDS011;27866;48.146;17.098;2023-03-16T07:01:43;15.07;;;9.00;;
42196;SDS011;27866;48.146;17.098;2023-03-16T07:05:55;16.45;;;10.77;;
42196;SDS011;27866;48.146;17.098;2023-03-16T07:10:11;13.80;;;10.32;;
42196;SDS011;27866;48.146;17.098;2023-03-16T07:14:24;16.15;;;10.35;;
42196;SDS011;27866;48.146;17.098;2023-03-16T07:18:38;23.70;;;9.85;;
42196;SDS011;27866;48.146;17.098;2023-03-16T07:22:52;18.63;;;9.13;;
42196;SDS011;27866;48.146;17.098;2023-03-16T07:27:04;13.07;;;8.57;;
42196;SDS011;27866;48.146;17.098;2023-03-16T07:31:16;18.00;;;10.20;;
42196;SDS011;27866;48.146;17.098;2023-03-16T07:35:29;14.35;;;9.25;;
42196;SDS011;27866;48.146;17.098;2023-03-16T07:39:42;14.85;;;8.68;;
42196;SDS011;27866;48.146;17.098;2023-03-16T07:44:00;14.93;;;9.05;;
42196;SDS011;27866;48.146;17.098;2023-03-16T07:48:12;17.00;;;9.60;;
42196;SDS011;27866;48.146;17.098;2023-03-16T07:52:32;14.65;;;9.10;;
42196;SDS011;27866;48.146;17.098;2023-03-16T07:56:45;19.98;;;9.93;;
42196;SDS011;27866;48.146;17.098;2023-03-16T08:01:03;15.23;;;9.77;;
42196;SDS011;27866;48.146;17.098;2023-03-16T08:05:15;12.93;;;9.75;;
42196;SDS011;27866;48.146;17.098;2023-03-16T08:09:31;15.75;;;9.77;;
42196;SDS011;27866;48.146;17.098;2023-03-16T08:22:17;14.80;;;9.70;;
42196;SDS011;27866;48.146;17.098;2023-03-16T08:26:33;16.00;;;9.75;;
42196;SDS011;27866;48.146;17.098;2023-03-16T08:30:45;26.20;;;13.07;;
42196;SDS011;27866;48.146;17.098;2023-03-16T08:35:45;12.70;;;9.10;;
42196;SDS011;27866;48.146;17.098;2023-03-16T08:39:57;15.23;;;9.52;;
42196;SDS011;27866;48.146;17.098;2023-03-16T08:44:11;17.20;;;8.33;;
42196;SDS011;27866;48.146;17.098;2023-03-16T08:48:22;12.05;;;8.52;;
42196;SDS011;27866;48.146;17.098;2023-03-16T08:52:35;11.98;;;8.68;;
42196;SDS011;27866;48.146;17.098;2023-03-16T08:56:46;14.82;;;7.90;;
42196;SDS011;27866;48.146;17.098;2023-03-16T09:00:58;12.52;;;7.32;;
42196;SDS011;27866;48.146;17.098;2023-03-16T09:05:12;13.10;;;7.63;;
42196;SDS011;27866;48.146;17.098;2023-03-16T09:09:25;11.75;;;7.80;;
42196;SDS011;27866;48.146;17.098;2023-03-16T09:13:37;11.50;;;7.28;;
42196;SDS011;27866;48.146;17.098;2023-03-16T09:17:49;12.27;;;6.78;;
42196;SDS011;27866;48.146;17.098;2023-03-16T09:22:01;11.93;;;6.72;;
42196;SDS011;27866;48.146;17.098;2023-03-16T09:26:13;12.18;;;7.70;;
42196;SDS011;27866;48.146;17.098;2023-03-16T09:30:25;8.40;;;6.18;;
42196;SDS011;27866;48.146;17.098;2023-03-16T09:34:37;8.40;;;5.43;;
42196;SDS011;27866;48.146;17.098;2023-03-16T09:38:48;8.95;;;5.85;;
42196;SDS011;27866;48.146;17.098;2023-03-16T09:47:50;14.15;;;6.32;;
42196;SDS011;27866;48.146;17.098;2023-03-16T09:56:37;8.93;;;5.55;;
42196;SDS011;27866;48.146;17.098;2023-03-16T10:05:31;10.57;;;5.15;;
42196;SDS011;27866;48.146;17.098;2023-03-16T10:09:48;11.60;;;4.93;;
42196;SDS011;27866;48.146;17.098;2023-03-16T10:14:45;6.63;;;4.15;;
42196;SDS011;27866;48.146;17.098;2023-03-16T10:23:24;6.45;;;3.78;;
42196;SDS011;27866;48.146;17.098;2023-03-16T10:27:37;5.75;;;3.30;;
42196;SDS011;27866;48.146;17.098;2023-03-16T10:31:53;5.53;;;2.70;;
42196;SDS011;27866;48.146;17.098;2023-03-16T10:36:13;7.38;;;3.08;;
42196;SDS011;27866;48.146;17.098;2023-03-16T10:40:37;9.48;;;3.67;;
42196;SDS011;27866;48.146;17.098;2023-03-16T10:44:55;7.33;;;3.50;;
42196;SDS011;27866;48.146;17.098;2023-03-16T10:49:22;4.05;;;2.90;;
42196;SDS011;27866;48.146;17.098;2023-03-16T10:53:51;6.93;;;3.15;;
42196;SDS011;27866;48.146;17.098;2023-03-16T10:58:03;6.47;;;3.38;;
42196;SDS011;27866;48.146;17.098;2023-03-16T11:02:20;6.95;;;3.58;;
42196;SDS011;27866;48.146;17.098;2023-03-16T11:06:36;5.93;;;2.85;;
42196;SDS011;27866;48.146;17.098;2023-03-16T11:11:46;7.50;;;3.50;;
42196;SDS011;27866;48.146;17.098;2023-03-16T11:15:55;6.90;;;3.50;;
42196;SDS011;27866;48.146;17.098;2023-03-16T11:20:36;4.75;;;3.20;;
42196;SDS011;27866;48.146;17.098;2023-03-16T11:33:27;5.25;;;3.15;;
42196;SDS011;27866;48.146;17.098;2023-03-16T11:42:29;6.18;;;3.38;;
42196;SDS011;27866;48.146;17.098;2023-03-16T11:57:09;7.22;;;2.90;;
42196;SDS011;27866;48.146;17.098;2023-03-16T12:01:39;5.85;;;2.80;;
42196;SDS011;27866;48.146;17.098;2023-03-16T12:11:17;5.20;;;2.47;;
42196;SDS011;27866;48.146;17.098;2023-03-16T12:16:45;8.23;;;3.10;;
42196;SDS011;27866;48.146;17.098;2023-03-16T12:21:05;9.43;;;2.90;;
42196;SDS011;27866;48.146;17.098;2023-03-16T12:25:38;8.15;;;2.95;;
42196;SDS011;27866;48.146;17.098;2023-03-16T12:35:16;8.05;;;3.40;;
42196;SDS011;27866;48.146;17.098;2023-03-16T12:44:35;8.30;;;3.00;;
42196;SDS011;27866;48.146;17.098;2023-03-16T12:49:13;5.40;;;2.80;;
42196;SDS011;27866;48.146;17.098;2023-03-16T12:58:05;4.65;;;2.90;;
42196;SDS011;27866;48.146;17.098;2023-03-16T13:02:19;3.67;;;2.60;;
42196;SDS011;27866;48.146;17.098;2023-03-16T13:06:41;6.32;;;2.80;;
42196;SDS011;27866;48.146;17.098;2023-03-16T13:11:06;5.40;;;2.90;;
42196;SDS011;27866;48.146;17.098;2023-03-16T13:19:39;10.73;;;2.80;;
42196;SDS011;27866;48.146;17.098;2023-03-16T13:23:57;6.40;;;3.00;;
42196;SDS011;27866;48.146;17.098;2023-03-16T13:28:34;7.97;;;2.75;;
42196;SDS011;27866;48.146;17.098;2023-03-16T13:32:51;4.18;;;2.70;;
42196;SDS011;27866;48.146;17.098;2023-03-16T13:37:13;7.60;;;2.63;;
42196;SDS011;27866;48.146;17.098;2023-03-16T13:41:27;6.80;;;2.55;;
42196;SDS011;27866;48.146;17.098;2023-03-16T13:45:41;8.82;;;2.97;;
42196;SDS011;27866;48.146;17.098;2023-03-16T13:49:54;7.15;;;2.92;;
42196;SDS011;27866;48.146;17.098;2023-03-16T13:54:21;6.30;;;3.08;;
42196;SDS011;27866;48.146;17.098;2023-03-16T13:58:37;6.25;;;3.47;;
42196;SDS011;27866;48.146;17.098;2023-03-16T14:02:55;5.22;;;2.72;;
42196;SDS011;27866;48.146;17.098;2023-03-16T14:07:18;5.85;;;3.00;;
42196;SDS011;27866;48.146;17.098;2023-03-16T14:11:30;7.55;;;3.15;;
42196;SDS011;27866;48.146;17.098;2023-03-16T14:15:43;3.30;;;2.55;;
42196;SDS011;27866;48.146;17.098;2023-03-16T14:19:57;4.45;;;3.10;;
42196;SDS011;27866;48.146;17.098;2023-03-16T14:24:32;5.72;;;2.90;;
42196;SDS011;27866;48.146;17.098;2023-03-16T14:33:22;6.00;;;3.15;;
42196;SDS011;27866;48.146;17.098;2023-03-16T14:37:41;6.28;;;3.35;;
42196;SDS011;27866;48.146;17.098;2023-03-16T14:46:05;3.65;;;2.90;;
42196;SDS011;27866;48.146;17.098;2023-03-16T14:50:21;5.43;;;3.03;;
42196;SDS011;27866;48.146;17.098;2023-03-16T14:54:35;6.60;;;3.10;;
42196;SDS011;27866;48.146;17.098;2023-03-16T14:58:46;5.72;;;3.00;;
42196;SDS011;27866;48.146;17.098;2023-03-16T15:03:09;6.40;;;3.45;;
42196;SDS011;27866;48.146;17.098;2023-03-16T15:11:37;6.13;;;3.33;;
42196;SDS011;27866;48.146;17.098;2023-03-16T15:15:52;5.40;;;3.13;;
42196;SDS011;27866;48.146;17.098;2023-03-16T15:20:04;4.18;;;3.33;;
42196;SDS011;27866;48.146;17.098;2023-03-16T15:24:16;12.35;;;4.20;;
42196;SDS011;27866;48.146;17.098;2023-03-16T15:28:28;7.05;;;3.47;;
42196;SDS011;27866;48.146;17.098;2023-03-16T15:32:39;6.63;;;3.13;;
42196;SDS011;27866;48.146;17.098;2023-03-16T15:36:51;5.70;;;3.10;;
42196;SDS011;27866;48.146;17.098;2023-03-16T15:41:02;7.90;;;3.22;;
42196;SDS011;27866;48.146;17.098;2023-03-16T15:45:19;5.30;;;3.25;;
42196;SDS011;27866;48.146;17.098;2023-03-16T15:49:32;18.58;;;3.88;;
42196;SDS011;27866;48.146;17.098;2023-03-16T15:53:47;8.15;;;3.28;;
42196;SDS011;27866;48.146;17.098;2023-03-16T15:58:02;7.20;;;3.72;;
42196;SDS011;27866;48.146;17.098;2023-03-16T16:02:28;14.75;;;4.00;;
42196;SDS011;27866;48.146;17.098;2023-03-16T16:06:41;10.00;;;3.25;;
42196;SDS011;27866;48.146;17.098;2023-03-16T16:10:53;8.50;;;3.65;;
42196;SDS011;27866;48.146;17.098;2023-03-16T16:19:47;5.32;;;3.15;;
42196;SDS011;27866;48.146;17.098;2023-03-16T16:23:59;6.32;;;3.10;;
42196;SDS011;27866;48.146;17.098;2023-03-16T16:28:13;16.48;;;3.70;;
42196;SDS011;27866;48.146;17.098;2023-03-16T16:32:33;20.95;;;4.80;;
42196;SDS011;27866;48.146;17.098;2023-03-16T16:36:45;11.02;;;3.92;;
42196;SDS011;27866;48.146;17.098;2023-03-16T16:41:01;5.50;;;3.33;;
42196;SDS011;27866;48.146;17.098;2023-03-16T16:45:19;6.53;;;3.25;;
42196;SDS011;27866;48.146;17.098;2023-03-16T16:49:35;13.73;;;3.72;;
42196;SDS011;27866;48.146;17.098;2023-03-16T16:53:47;6.90;;;3.35;;
42196;SDS011;27866;48.146;17.098;2023-03-16T16:58:01;6.45;;;3.35;;
42196;SDS011;27866;48.146;17.098;2023-03-16T17:02:20;13.60;;;3.80;;
42196;SDS011;27866;48.146;17.098;2023-03-16T17:06:42;6.05;;;3.28;;
42196;SDS011;27866;48.146;17.098;2023-03-16T17:10:54;13.55;;;3.75;;
42196;SDS011;27866;48.146;17.098;2023-03-16T17:15:16;7.57;;;3.70;;
42196;SDS011;27866;48.146;17.098;2023-03-16T17:19:31;6.72;;;3.65;;
42196;SDS011;27866;48.146;17.098;2023-03-16T17:23:42;6.97;;;3.50;;
42196;SDS011;27866;48.146;17.098;2023-03-16T17:27:54;9.38;;;3.53;;
42196;SDS011;27866;48.146;17.098;2023-03-16T17:32:14;12.38;;;4.18;;
42196;SDS011;27866;48.146;17.098;2023-03-16T17:36:31;8.13;;;4.05;;
42196;SDS011;27866;48.146;17.098;2023-03-16T17:40:43;8.85;;;4.05;;
42196;SDS011;27866;48.146;17.098;2023-03-16T17:44:55;8.07;;;4.32;;
42196;SDS011;27866;48.146;17.098;2023-03-16T17:49:13;9.05;;;4.05;;
42196;SDS011;27866;48.146;17.098;2023-03-16T17:53:29;7.07;;;3.40;;
42196;SDS011;27866;48.146;17.098;2023-03-16T17:57:41;6.80;;;3.30;;
42196;SDS011;27866;48.146;17.098;2023-03-16T18:01:52;7.10;;;3.15;;
42196;SDS011;27866;48.146;17.098;2023-03-16T18:06:04;5.82;;;3.30;;
42196;SDS011;27866;48.146;17.098;2023-03-16T18:10:20;6.45;;;3.65;;
42196;SDS011;27866;48.146;17.098;2023-03-16T18:14:35;9.57;;;3.40;;
42196;SDS011;27866;48.146;17.098;2023-03-16T18:18:49;9.57;;;3.65;;
42196;SDS011;27866;48.146;17.098;2023-03-16T18:23:22;5.70;;;3.28;;
42196;SDS011;27866;48.146;17.098;2023-03-16T18:27:37;6.93;;;3.60;;
42196;SDS011;27866;48.146;17.098;2023-03-16T18:31:48;7.53;;;4.30;;
42196;SDS011;27866;48.146;17.098;2023-03-16T18:44:38;8.35;;;4.28;;
42196;SDS011;27866;48.146;17.098;2023-03-16T18:48:50;9.32;;;4.18;;
42196;SDS011;27866;48.146;17.098;2023-03-16T18:53:04;8.52;;;4.43;;
42196;SDS011;27866;48.146;17.098;2023-03-16T18:57:18;9.88;;;4.50;;
42196;SDS011;27866;48.146;17.098;2023-03-16T19:01:40;8.60;;;4.60;;
42196;SDS011;27866;48.146;17.098;2023-03-16T19:05:54;11.43;;;5.10;;
42196;SDS011;27866;48.146;17.098;2023-03-16T19:14:44;12.52;;;5.38;;
42196;SDS011;27866;48.146;17.098;2023-03-16T19:18:56;12.43;;;4.97;;
42196;SDS011;27866;48.146;17.098;2023-03-16T19:27:33;14.10;;;6.25;;
42196;SDS011;27866;48.146;17.098;2023-03-16T19:31:46;9.70;;;5.60;;
42196;SDS011;27866;48.146;17.098;2023-03-16T19:35:57;13.70;;;6.40;;
42196;SDS011;27866;48.146;17.098;2023-03-16T19:40:10;10.80;;;5.43;;
42196;SDS011;27866;48.146;17.098;2023-03-16T19:44:24;10.77;;;5.28;;
42196;SDS011;27866;48.146;17.098;2023-03-16T19:48:37;9.18;;;4.65;;
42196;SDS011;27866;48.146;17.098;2023-03-16T19:52:50;8.25;;;4.72;;
42196;SDS011;27866;48.146;17.098;2023-03-16T19:57:03;10.38;;;4.88;;
42196;SDS011;27866;48.146;17.098;2023-03-16T20:01:24;8.45;;;4.57;;
42196;SDS011;27866;48.146;17.098;2023-03-16T20:05:41;8.18;;;4.35;;
42196;SDS011;27866;48.146;17.098;2023-03-16T20:09:52;7.28;;;3.80;;
42196;SDS011;27866;48.146;17.098;2023-03-16T20:14:03;10.95;;;4.07;;
42196;SDS011;27866;48.146;17.098;2023-03-16T20:18:15;9.20;;;3.85;;
42196;SDS011;27866;48.146;17.098;2023-03-16T20:22:28;7.03;;;3.30;;
42196;SDS011;27866;48.146;17.098;2023-03-16T20:26:39;7.65;;;3.20;;
42196;SDS011;27866;48.146;17.098;2023-03-16T20:30:51;6.05;;;3.40;;
42196;SDS011;27866;48.146;17.098;2023-03-16T20:35:11;7.68;;;2.92;;
42196;SDS011;27866;48.146;17.098;2023-03-16T20:39:36;5.45;;;3.22;;
42196;SDS011;27866;48.146;17.098;2023-03-16T20:43:47;7.47;;;3.30;;
42196;SDS011;27866;48.146;17.098;2023-03-16T20:47:59;4.35;;;2.72;;
42196;SDS011;27866;48.146;17.098;2023-03-16T20:52:15;5.70;;;2.83;;
42196;SDS011;27866;48.146;17.098;2023-03-16T20:56:37;7.05;;;2.80;;
42196;SDS011;27866;48.146;17.098;2023-03-16T21:00:48;5.38;;;2.67;;
42196;SDS011;27866;48.146;17.098;2023-03-16T21:05:03;5.50;;;2.30;;
42196;SDS011;27866;48.146;17.098;2023-03-16T21:09:17;7.05;;;2.55;;
42196;SDS011;27866;48.146;17.098;2023-03-16T21:13:31;7.30;;;2.83;;
42196;SDS011;27866;48.146;17.098;2023-03-16T21:17:43;5.65;;;2.70;;
42196;SDS011;27866;48.146;17.098;2023-03-16T21:21:54;7.05;;;2.78;;
42196;SDS011;27866;48.146;17.098;2023-03-16T21:26:06;6.18;;;2.85;;
42196;SDS011;27866;48.146;17.098;2023-03-16T21:30:31;7.03;;;3.13;;
42196;SDS011;27866;48.146;17.098;2023-03-16T21:34:49;12.98;;;3.67;;
42196;SDS011;27866;48.146;17.098;2023-03-16T21:39:00;7.90;;;2.92;;
42196;SDS011;27866;48.146;17.098;2023-03-16T21:43:22;7.82;;;3.30;;
42196;SDS011;27866;48.146;17.098;2023-03-16T21:47:35;8.02;;;3.25;;
42196;SDS011;27866;48.146;17.098;2023-03-16T21:51:47;8.65;;;3.65;;
42196;SDS011;27866;48.146;17.098;2023-03-16T21:56:00;8.47;;;3.97;;
42196;SDS011;27866;48.146;17.098;2023-03-16T22:00:15;8.18;;;3.53;;
42196;SDS011;27866;48.146;17.098;2023-03-16T22:04:38;5.53;;;3.20;;
42196;SDS011;27866;48.146;17.098;2023-03-16T22:08:50;8.32;;;3.97;;
42196;SDS011;27866;48.146;17.098;2023-03-16T22:13:01;9.18;;;3.50;;
42196;SDS011;27866;48.146;17.098;2023-03-16T22:17:19;8.75;;;3.65;;
42196;SDS011;27866;48.146;17.098;2023-03-16T22:21:35;6.63;;;3.97;;
42196;SDS011;27866;48.146;17.098;2023-03-16T22:25:49;7.30;;;3.75;;
42196;SDS011;27866;48.146;17.098;2023-03-16T22:30:00;8.20;;;3.42;;
42196;SDS011;27866;48.146;17.098;2023-03-16T22:38:56;9.75;;;4.13;;
42196;SDS011;27866;48.146;17.098;2023-03-16T22:43:23;7.75;;;3.90;;
42196;SDS011;27866;48.146;17.098;2023-03-16T22:47:41;10.40;;;4.40;;
42196;SDS011;27866;48.146;17.098;2023-03-16T22:51:53;11.82;;;4.90;;
42196;SDS011;27866;48.146;17.098;2023-03-16T22:56:06;9.68;;;4.68;;
42196;SDS011;27866;48.146;17.098;2023-03-16T23:00:21;12.05;;;4.35;;
42196;SDS011;27866;48.146;17.098;2023-03-16T23:04:42;10.52;;;5.35;;
42196;SDS011;27866;48.146;17.098;2023-03-16T23:08:54;10.73;;;5.03;;
42196;SDS011;27866;48.146;17.098;2023-03-16T23:13:09;11.63;;;4.55;;
42196;SDS011;27866;48.146;17.098;2023-03-16T23:17:27;13.73;;;5.00;;
42196;SDS011;27866;48.146;17.098;2023-03-16T23:21:38;10.68;;;4.47;;
42196;SDS011;27866;48.146;17.098;2023-03-16T23:25:50;10.45;;;4.40;;
42196;SDS011;27866;48.146;17.098;2023-03-16T23:30:01;8.10;;;3.97;;
42196;SDS011;27866;48.146;17.098;2023-03-16T23:34:24;14.23;;;4.68;;
42196;SDS011;27866;48.146;17.098;2023-03-16T23:38:35;8.18;;;4.20;;
42196;SDS011;27866;48.146;17.098;2023-03-16T23:42:47;11.90;;;4.47;;
42196;SDS011;27866;48.146;17.098;2023-03-16T23:46:59;11.52;;;4.30;;
42196;SDS011;27866;48.146;17.098;2023-03-16T23:51:16;9.07;;;4.28;;
42196;SDS011;27866;48.146;17.098;2023-03-16T23:55:46;12.73;;;4.32;;
42196;SDS011;27866;48.146;17.098;2023-03-16T23:59:58;10.35;;;4.97;;
